CDT,Max TemperatureF,Mean TemperatureF,Min TemperatureF,Max Dew PointF,MeanDew PointF,Min DewpointF,Max Humidity, Mean Humidity, Min Humidity, Max Sea Level PressureIn, Mean Sea Level PressureIn, Min Sea Level PressureIn, Max VisibilityMiles, Mean VisibilityMiles, Min VisibilityMiles, Max Wind SpeedMPH, Mean Wind SpeedMPH, Max Gust SpeedMPH,PrecipitationIn, CloudCover, Events, WindDirDegrees
2012-10-1,63,60,57,56,53,50,87,80,72,29.78,29.73,29.67,10,10,5,17,9,23,0.01,5,Rain,13
2012-10-2,68,59,50,55,51,46,87,70,52,29.93,29.82,29.73,10,10,10,16,6,21,0.00,7,,352
2012-10-3,77,63,49,57,54,48,93,72,50,30.10,30.01,29.94,10,10,10,16,4,21,0.00,2,Thunderstorm,206
2012-10-4,80,67,54,60,56,53,93,66,39,30.22,30.16,30.11,10,10,7,14,4,18,0.00,1,,196
2012-10-5,64,54,43,57,46,39,93,80,67,30.20,30.13,30.05,10,9,3,22,10,30,0.23,6,Rain-Thunderstorm,6
2012-10-6,56,45,34,40,36,30,92,67,41,30.27,30.22,30.17,10,10,10,14,6,21,T,3,,358
2012-10-7,57,49,41,42,36,32,96,70,43,30.28,30.23,30.19,10,10,10,13,4,20,0.00,3,,349
2012-10-8,60,48,36,42,39,36,100,70,39,30.27,30.20,30.12,10,9,0,10,3,14,0.00,0,Fog,210
2012-10-9,64,50,35,48,40,34,92,68,44,30.15,30.07,29.97,10,9,2,15,6,22,0.00,1,,193
2012-10-10,59,48,37,50,37,28,85,58,31,30.28,30.19,30.01,10,10,10,20,8,25,0.00,3,,351
2012-10-11,62,48,33,50,40,32,100,71,42,30.30,30.23,30.17,10,10,2,21,4,28,0.85,6,Rain-Thunderstorm,173
2012-10-12,62,57,51,53,51,50,100,86,72,30.34,30.24,30.18,10,7,1,12,4,15,0.12,6,Rain-Thunderstorm,41
2012-10-13,80,68,55,66,60,52,100,77,54,30.24,30.11,29.89,10,5,0,21,8,29,0.00,5,Fog,173
2012-10-14,75,64,52,64,59,51,87,74,61,29.96,29.84,29.73,10,10,4,25,14,36,0.10,5,Rain,217
2012-10-15,74,58,42,50,46,41,100,68,35,30.04,29.99,29.95,10,8,0,9,3,13,0.00,0,Fog,254
2012-10-16,78,64,50,55,51,47,93,68,42,29.96,29.84,29.73,10,10,10,15,8,21,0.00,0,,171
2012-10-17,78,65,52,64,57,50,89,70,50,29.76,29.55,29.37,10,9,0,36,14,46,0.87,6,Fog-Rain-Thunderstorm,204
2012-10-18,65,57,49,49,39,31,93,61,28,29.74,29.68,29.64,10,10,10,25,12,37,0.00,1,,233
2012-10-19,61,52,43,44,40,35,80,65,50,29.84,29.71,29.62,10,10,10,16,10,23,T,6,,265
2012-10-20,66,52,37,47,43,37,100,74,48,29.95,29.90,29.84,10,10,10,12,4,17,0.00,0,,211
2012-10-21,77,64,50,61,53,44,80,67,53,30.01,29.97,29.94,10,10,10,16,8,22,0.00,4,,172
2012-10-22,80,71,62,61,53,48,72,54,35,30.06,30.01,29.98,10,10,10,24,12,33,0.00,2,,186
2012-10-23,80,69,58,62,55,48,75,64,52,30.05,29.99,29.94,10,10,10,21,8,28,0.00,2,,189
2012-10-24,82,70,57,63,58,53,84,68,51,30.06,30.00,29.94,10,10,10,17,8,22,0.00,2,,187
2012-10-25,81,64,47,64,57,46,93,74,54,30.08,29.95,29.87,10,9,4,25,14,32,0.29,4,Rain,199
2012-10-26,49,45,41,45,38,32,93,75,56,30.27,30.21,30.12,10,9,4,25,14,31,0.11,6,Rain,2
2012-10-27,55,46,36,34,32,30,82,62,41,30.26,30.21,30.15,10,10,10,22,12,31,0.00,0,,1
2012-10-28,54,44,33,35,32,30,82,65,48,30.23,30.20,30.17,10,10,10,21,9,26,0.00,1,,349
2012-10-29,56,43,30,34,29,23,92,61,29,30.29,30.20,30.09,10,10,10,20,8,24,0.00,0,,330
2012-10-30,60,47,33,28,27,25,75,50,25,30.07,29.96,29.87,10,10,10,25,11,36,0.00,0,,306
2012-10-31,60,45,30,31,26,19,85,53,21,29.99,29.95,29.92,10,10,10,17,6,21,0.00,0,,294